sensor_id;sensor_type;location;lat;lon;timestamp;P1;durP1;ratioP1;P2;durP2;ratioP2
18076;SDS011;9165;45.714;11.362;2022-12-18T00:01:56;7.20;;;5.40;;
18076;SDS011;9165;45.714;11.362;2022-12-18T00:04:23;10.50;;;6.27;;
18076;SDS011;9165;45.714;11.362;2022-12-18T00:06:52;10.80;;;6.30;;
18076;SDS011;9165;45.714;11.362;2022-12-18T00:09:19;8.37;;;5.67;;
18076;SDS011;9165;45.714;11.362;2022-12-18T00:14:23;6.67;;;4.97;;
18076;SDS011;9165;45.714;11.362;2022-12-18T00:16:50;5.50;;;4.10;;
18076;SDS011;9165;45.714;11.362;2022-12-18T00:19:17;8.33;;;4.80;;
18076;SDS011;9165;45.714;11.362;2022-12-18T00:21:43;7.43;;;4.70;;
18076;SDS011;9165;45.714;11.362;2022-12-18T00:24:11;9.13;;;4.73;;
18076;SDS011;9165;45.714;11.362;2022-12-18T00:26:38;5.73;;;3.90;;
18076;SDS011;9165;45.714;11.362;2022-12-18T00:29:05;5.97;;;3.77;;
18076;SDS011;9165;45.714;11.362;2022-12-18T00:31:32;4.83;;;4.07;;
18076;SDS011;9165;45.714;11.362;2022-12-18T00:33:59;6.53;;;4.03;;
18076;SDS011;9165;45.714;11.362;2022-12-18T00:36:26;5.77;;;3.93;;
18076;SDS011;9165;45.714;11.362;2022-12-18T00:38:54;5.47;;;4.23;;
18076;SDS011;9165;45.714;11.362;2022-12-18T00:41:22;7.20;;;4.93;;
18076;SDS011;9165;45.714;11.362;2022-12-18T00:44:07;8.57;;;5.77;;
18076;SDS011;9165;45.714;11.362;2022-12-18T00:46:34;6.90;;;4.03;;
18076;SDS011;9165;45.714;11.362;2022-12-18T00:49:00;7.07;;;4.40;;
18076;SDS011;9165;45.714;11.362;2022-12-18T00:51:27;6.07;;;3.77;;
18076;SDS011;9165;45.714;11.362;2022-12-18T00:53:53;6.37;;;4.20;;
18076;SDS011;9165;45.714;11.362;2022-12-18T00:56:22;7.23;;;4.23;;
18076;SDS011;9165;45.714;11.362;2022-12-18T00:58:48;4.20;;;3.60;;
18076;SDS011;9165;45.714;11.362;2022-12-18T01:01:15;4.03;;;3.30;;
18076;SDS011;9165;45.714;11.362;2022-12-18T01:03:41;7.10;;;3.70;;
18076;SDS011;9165;45.714;11.362;2022-12-18T01:06:11;5.13;;;4.00;;
18076;SDS011;9165;45.714;11.362;2022-12-18T01:08:37;5.30;;;3.70;;
18076;SDS011;9165;45.714;11.362;2022-12-18T01:11:06;3.87;;;3.50;;
18076;SDS011;9165;45.714;11.362;2022-12-18T01:13:34;4.27;;;3.10;;
18076;SDS011;9165;45.714;11.362;2022-12-18T01:16:01;3.97;;;3.23;;
18076;SDS011;9165;45.714;11.362;2022-12-18T01:18:27;6.53;;;4.27;;
18076;SDS011;9165;45.714;11.362;2022-12-18T01:20:54;4.20;;;3.30;;
18076;SDS011;9165;45.714;11.362;2022-12-18T01:23:20;4.47;;;3.40;;
18076;SDS011;9165;45.714;11.362;2022-12-18T01:25:47;5.73;;;3.07;;
18076;SDS011;9165;45.714;11.362;2022-12-18T01:28:14;4.63;;;3.17;;
18076;SDS011;9165;45.714;11.362;2022-12-18T01:30:42;4.40;;;3.53;;
18076;SDS011;9165;45.714;11.362;2022-12-18T01:33:09;4.53;;;3.20;;
18076;SDS011;9165;45.714;11.362;2022-12-18T01:35:39;5.10;;;2.73;;
18076;SDS011;9165;45.714;11.362;2022-12-18T01:38:06;3.80;;;2.83;;
18076;SDS011;9165;45.714;11.362;2022-12-18T01:40:32;3.90;;;3.07;;
18076;SDS011;9165;45.714;11.362;2022-12-18T01:42:59;3.43;;;3.13;;
18076;SDS011;9165;45.714;11.362;2022-12-18T01:45:26;4.77;;;2.80;;
18076;SDS011;9165;45.714;11.362;2022-12-18T01:47:55;4.77;;;3.07;;
18076;SDS011;9165;45.714;11.362;2022-12-18T01:50:23;3.27;;;2.77;;
18076;SDS011;9165;45.714;11.362;2022-12-18T01:52:51;3.03;;;2.73;;
18076;SDS011;9165;45.714;11.362;2022-12-18T01:55:20;5.03;;;3.03;;
18076;SDS011;9165;45.714;11.362;2022-12-18T01:57:47;4.50;;;2.80;;
18076;SDS011;9165;45.714;11.362;2022-12-18T02:00:15;3.13;;;2.80;;
18076;SDS011;9165;45.714;11.362;2022-12-18T02:02:42;3.67;;;3.13;;
18076;SDS011;9165;45.714;11.362;2022-12-18T02:05:11;3.57;;;3.10;;
18076;SDS011;9165;45.714;11.362;2022-12-18T02:07:42;4.33;;;3.13;;
18076;SDS011;9165;45.714;11.362;2022-12-18T02:10:13;5.03;;;3.23;;
18076;SDS011;9165;45.714;11.362;2022-12-18T02:12:42;3.67;;;3.00;;
18076;SDS011;9165;45.714;11.362;2022-12-18T02:15:12;7.30;;;3.27;;
18076;SDS011;9165;45.714;11.362;2022-12-18T02:17:42;3.17;;;2.70;;
18076;SDS011;9165;45.714;11.362;2022-12-18T02:20:13;3.83;;;3.23;;
18076;SDS011;9165;45.714;11.362;2022-12-18T02:22:44;5.47;;;2.63;;
18076;SDS011;9165;45.714;11.362;2022-12-18T02:25:18;4.37;;;3.20;;
18076;SDS011;9165;45.714;11.362;2022-12-18T02:27:50;4.47;;;2.93;;
18076;SDS011;9165;45.714;11.362;2022-12-18T02:30:18;3.60;;;2.80;;
18076;SDS011;9165;45.714;11.362;2022-12-18T02:32:46;3.73;;;2.93;;
18076;SDS011;9165;45.714;11.362;2022-12-18T02:35:15;4.17;;;3.17;;
18076;SDS011;9165;45.714;11.362;2022-12-18T02:37:43;3.63;;;3.30;;
18076;SDS011;9165;45.714;11.362;2022-12-18T02:40:11;4.13;;;3.03;;
18076;SDS011;9165;45.714;11.362;2022-12-18T02:42:38;3.20;;;2.90;;
18076;SDS011;9165;45.714;11.362;2022-12-18T02:45:07;5.70;;;3.03;;
18076;SDS011;9165;45.714;11.362;2022-12-18T02:47:35;3.23;;;2.57;;
18076;SDS011;9165;45.714;11.362;2022-12-18T02:50:05;4.20;;;3.10;;
18076;SDS011;9165;45.714;11.362;2022-12-18T02:52:35;3.77;;;2.97;;
18076;SDS011;9165;45.714;11.362;2022-12-18T02:55:07;3.93;;;3.10;;
18076;SDS011;9165;45.714;11.362;2022-12-18T02:57:40;3.13;;;2.83;;
18076;SDS011;9165;45.714;11.362;2022-12-18T03:00:10;2.83;;;2.40;;
18076;SDS011;9165;45.714;11.362;2022-12-18T03:02:39;3.77;;;2.70;;
18076;SDS011;9165;45.714;11.362;2022-12-18T03:05:08;4.13;;;3.10;;
18076;SDS011;9165;45.714;11.362;2022-12-18T03:07:37;3.97;;;2.93;;
18076;SDS011;9165;45.714;11.362;2022-12-18T03:10:05;3.70;;;2.83;;
18076;SDS011;9165;45.714;11.362;2022-12-18T03:12:33;3.03;;;2.57;;
18076;SDS011;9165;45.714;11.362;2022-12-18T03:15:02;3.03;;;2.70;;
18076;SDS011;9165;45.714;11.362;2022-12-18T03:17:32;3.37;;;2.77;;
18076;SDS011;9165;45.714;11.362;2022-12-18T03:20:01;3.47;;;3.07;;
18076;SDS011;9165;45.714;11.362;2022-12-18T03:22:30;3.07;;;2.77;;
18076;SDS011;9165;45.714;11.362;2022-12-18T03:24:58;3.57;;;2.80;;
18076;SDS011;9165;45.714;11.362;2022-12-18T03:27:26;3.47;;;2.83;;
18076;SDS011;9165;45.714;11.362;2022-12-18T03:29:56;3.97;;;3.27;;
18076;SDS011;9165;45.714;11.362;2022-12-18T03:32:28;4.17;;;3.30;;
18076;SDS011;9165;45.714;11.362;2022-12-18T03:34:58;3.13;;;2.53;;
18076;SDS011;9165;45.714;11.362;2022-12-18T03:37:25;4.60;;;2.70;;
18076;SDS011;9165;45.714;11.362;2022-12-18T03:39:52;3.23;;;2.70;;
18076;SDS011;9165;45.714;11.362;2022-12-18T03:42:21;3.50;;;2.57;;
18076;SDS011;9165;45.714;11.362;2022-12-18T03:44:50;3.50;;;2.83;;
18076;SDS011;9165;45.714;11.362;2022-12-18T03:47:20;3.53;;;3.07;;
18076;SDS011;9165;45.714;11.362;2022-12-18T03:49:50;3.63;;;2.70;;
18076;SDS011;9165;45.714;11.362;2022-12-18T03:52:23;3.57;;;2.67;;
18076;SDS011;9165;45.714;11.362;2022-12-18T03:54:52;3.20;;;2.77;;
18076;SDS011;9165;45.714;11.362;2022-12-18T03:57:21;4.07;;;3.13;;
18076;SDS011;9165;45.714;11.362;2022-12-18T03:59:49;3.07;;;2.70;;
18076;SDS011;9165;45.714;11.362;2022-12-18T04:02:16;3.50;;;2.87;;
18076;SDS011;9165;45.714;11.362;2022-12-18T04:04:44;3.60;;;2.80;;
18076;SDS011;9165;45.714;11.362;2022-12-18T04:07:10;2.80;;;2.50;;
18076;SDS011;9165;45.714;11.362;2022-12-18T04:09:39;3.17;;;2.70;;
18076;SDS011;9165;45.714;11.362;2022-12-18T04:12:07;3.57;;;2.73;;
18076;SDS011;9165;45.714;11.362;2022-12-18T04:14:34;3.53;;;2.87;;
18076;SDS011;9165;45.714;11.362;2022-12-18T04:17:01;3.10;;;2.73;;
18076;SDS011;9165;45.714;11.362;2022-12-18T04:19:28;3.10;;;2.80;;
18076;SDS011;9165;45.714;11.362;2022-12-18T04:21:54;3.13;;;2.83;;
18076;SDS011;9165;45.714;11.362;2022-12-18T04:24:21;3.20;;;2.90;;
18076;SDS011;9165;45.714;11.362;2022-12-18T04:26:49;3.57;;;2.70;;
18076;SDS011;9165;45.714;11.362;2022-12-18T04:29:16;3.50;;;2.87;;
18076;SDS011;9165;45.714;11.362;2022-12-18T04:31:42;6.47;;;3.07;;
18076;SDS011;9165;45.714;11.362;2022-12-18T04:34:09;2.60;;;2.33;;
18076;SDS011;9165;45.714;11.362;2022-12-18T04:36:35;3.57;;;2.47;;
18076;SDS011;9165;45.714;11.362;2022-12-18T04:39:02;7.73;;;2.37;;
18076;SDS011;9165;45.714;11.362;2022-12-18T04:41:29;5.83;;;2.47;;
18076;SDS011;9165;45.714;11.362;2022-12-18T04:43:56;2.77;;;2.50;;
18076;SDS011;9165;45.714;11.362;2022-12-18T04:46:23;2.80;;;2.37;;
18076;SDS011;9165;45.714;11.362;2022-12-18T04:48:49;4.57;;;3.30;;
18076;SDS011;9165;45.714;11.362;2022-12-18T04:51:16;5.00;;;2.73;;
18076;SDS011;9165;45.714;11.362;2022-12-18T04:53:43;3.63;;;2.43;;
18076;SDS011;9165;45.714;11.362;2022-12-18T04:56:10;3.23;;;2.40;;
18076;SDS011;9165;45.714;11.362;2022-12-18T04:58:37;4.50;;;2.90;;
18076;SDS011;9165;45.714;11.362;2022-12-18T05:01:05;3.57;;;2.47;;
18076;SDS011;9165;45.714;11.362;2022-12-18T05:03:32;3.93;;;2.83;;
18076;SDS011;9165;45.714;11.362;2022-12-18T05:05:59;3.30;;;2.40;;
18076;SDS011;9165;45.714;11.362;2022-12-18T05:08:25;3.90;;;2.57;;
18076;SDS011;9165;45.714;11.362;2022-12-18T05:10:57;3.60;;;2.40;;
18076;SDS011;9165;45.714;11.362;2022-12-18T05:13:24;3.50;;;2.77;;
18076;SDS011;9165;45.714;11.362;2022-12-18T05:15:51;3.53;;;2.80;;
18076;SDS011;9165;45.714;11.362;2022-12-18T05:18:19;3.27;;;2.80;;
18076;SDS011;9165;45.714;11.362;2022-12-18T05:20:46;3.77;;;2.87;;
18076;SDS011;9165;45.714;11.362;2022-12-18T05:23:12;3.00;;;2.70;;
18076;SDS011;9165;45.714;11.362;2022-12-18T05:25:39;3.63;;;2.90;;
18076;SDS011;9165;45.714;11.362;2022-12-18T05:28:05;3.20;;;2.40;;
18076;SDS011;9165;45.714;11.362;2022-12-18T05:30:32;3.20;;;2.63;;
18076;SDS011;9165;45.714;11.362;2022-12-18T05:32:58;3.53;;;2.77;;
18076;SDS011;9165;45.714;11.362;2022-12-18T05:35:26;4.00;;;2.70;;
18076;SDS011;9165;45.714;11.362;2022-12-18T05:37:53;4.53;;;3.00;;
18076;SDS011;9165;45.714;11.362;2022-12-18T05:40:19;3.70;;;2.83;;
18076;SDS011;9165;45.714;11.362;2022-12-18T05:42:46;3.53;;;3.13;;
18076;SDS011;9165;45.714;11.362;2022-12-18T05:45:12;3.80;;;2.67;;
18076;SDS011;9165;45.714;11.362;2022-12-18T05:47:39;3.70;;;3.00;;
18076;SDS011;9165;45.714;11.362;2022-12-18T05:50:06;3.97;;;2.77;;
18076;SDS011;9165;45.714;11.362;2022-12-18T05:52:34;4.87;;;3.10;;
18076;SDS011;9165;45.714;11.362;2022-12-18T05:55:01;4.80;;;2.80;;
18076;SDS011;9165;45.714;11.362;2022-12-18T05:57:27;3.53;;;3.17;;
18076;SDS011;9165;45.714;11.362;2022-12-18T05:59:54;5.83;;;2.80;;
18076;SDS011;9165;45.714;11.362;2022-12-18T06:02:21;5.23;;;3.53;;
18076;SDS011;9165;45.714;11.362;2022-12-18T06:04:48;5.27;;;3.10;;
18076;SDS011;9165;45.714;11.362;2022-12-18T06:07:14;4.27;;;2.97;;
18076;SDS011;9165;45.714;11.362;2022-12-18T06:09:42;4.17;;;2.77;;
18076;SDS011;9165;45.714;11.362;2022-12-18T06:12:09;4.27;;;2.83;;
18076;SDS011;9165;45.714;11.362;2022-12-18T06:14:35;7.53;;;3.13;;
18076;SDS011;9165;45.714;11.362;2022-12-18T06:17:02;4.27;;;3.00;;
18076;SDS011;9165;45.714;11.362;2022-12-18T06:19:28;4.97;;;3.00;;
18076;SDS011;9165;45.714;11.362;2022-12-18T06:21:55;4.27;;;3.20;;
18076;SDS011;9165;45.714;11.362;2022-12-18T06:24:23;10.60;;;3.10;;
18076;SDS011;9165;45.714;11.362;2022-12-18T06:26:51;5.43;;;3.20;;
18076;SDS011;9165;45.714;11.362;2022-12-18T06:29:18;3.50;;;2.97;;
18076;SDS011;9165;45.714;11.362;2022-12-18T06:31:45;3.10;;;2.80;;
18076;SDS011;9165;45.714;11.362;2022-12-18T06:34:11;3.87;;;3.20;;
18076;SDS011;9165;45.714;11.362;2022-12-18T06:36:38;3.87;;;3.07;;
18076;SDS011;9165;45.714;11.362;2022-12-18T06:39:04;4.63;;;2.80;;
18076;SDS011;9165;45.714;11.362;2022-12-18T06:41:31;5.63;;;3.53;;
18076;SDS011;9165;45.714;11.362;2022-12-18T06:43:59;4.57;;;3.50;;
18076;SDS011;9165;45.714;11.362;2022-12-18T06:46:25;4.80;;;3.13;;
18076;SDS011;9165;45.714;11.362;2022-12-18T06:48:52;6.40;;;3.40;;
18076;SDS011;9165;45.714;11.362;2022-12-18T06:51:19;3.37;;;2.87;;
18076;SDS011;9165;45.714;11.362;2022-12-18T06:53:45;4.80;;;3.50;;
18076;SDS011;9165;45.714;11.362;2022-12-18T06:56:12;3.57;;;3.10;;
18076;SDS011;9165;45.714;11.362;2022-12-18T06:58:39;5.47;;;3.30;;
18076;SDS011;9165;45.714;11.362;2022-12-18T07:01:07;4.40;;;3.60;;
18076;SDS011;9165;45.714;11.362;2022-12-18T07:03:34;9.40;;;3.47;;
18076;SDS011;9165;45.714;11.362;2022-12-18T07:06:01;4.47;;;3.60;;
18076;SDS011;9165;45.714;11.362;2022-12-18T07:08:28;4.67;;;3.43;;
18076;SDS011;9165;45.714;11.362;2022-12-18T07:10:55;4.27;;;3.53;;
18076;SDS011;9165;45.714;11.362;2022-12-18T07:13:21;3.97;;;3.50;;
18076;SDS011;9165;45.714;11.362;2022-12-18T07:15:48;4.30;;;3.40;;
18076;SDS011;9165;45.714;11.362;2022-12-18T07:18:16;4.90;;;3.87;;
18076;SDS011;9165;45.714;11.362;2022-12-18T07:20:43;6.47;;;3.17;;
18076;SDS011;9165;45.714;11.362;2022-12-18T07:23:09;3.73;;;3.03;;
18076;SDS011;9165;45.714;11.362;2022-12-18T07:25:36;3.17;;;2.87;;
18076;SDS011;9165;45.714;11.362;2022-12-18T07:28:03;4.43;;;3.50;;
18076;SDS011;9165;45.714;11.362;2022-12-18T07:30:30;5.03;;;3.60;;
18076;SDS011;9165;45.714;11.362;2022-12-18T07:32:56;4.33;;;3.27;;
18076;SDS011;9165;45.714;11.362;2022-12-18T07:35:24;4.80;;;3.50;;
18076;SDS011;9165;45.714;11.362;2022-12-18T07:37:51;8.50;;;4.63;;
18076;SDS011;9165;45.714;11.362;2022-12-18T07:40:17;5.53;;;4.00;;
18076;SDS011;9165;45.714;11.362;2022-12-18T07:42:44;5.30;;;4.03;;
18076;SDS011;9165;45.714;11.362;2022-12-18T07:45:11;6.73;;;4.30;;
18076;SDS011;9165;45.714;11.362;2022-12-18T07:47:37;5.17;;;4.20;;
18076;SDS011;9165;45.714;11.362;2022-12-18T07:50:06;5.33;;;4.23;;
18076;SDS011;9165;45.714;11.362;2022-12-18T07:52:34;4.53;;;3.67;;
18076;SDS011;9165;45.714;11.362;2022-12-18T07:55:01;8.30;;;3.97;;
18076;SDS011;9165;45.714;11.362;2022-12-18T07:57:27;4.93;;;4.03;;
18076;SDS011;9165;45.714;11.362;2022-12-18T07:59:54;5.40;;;4.30;;
18076;SDS011;9165;45.714;11.362;2022-12-18T08:02:21;4.53;;;4.00;;
18076;SDS011;9165;45.714;11.362;2022-12-18T08:04:47;5.80;;;4.10;;
18076;SDS011;9165;45.714;11.362;2022-12-18T08:07:14;6.20;;;4.27;;
18076;SDS011;9165;45.714;11.362;2022-12-18T08:09:42;6.27;;;4.50;;
18076;SDS011;9165;45.714;11.362;2022-12-18T08:12:08;7.93;;;5.30;;
18076;SDS011;9165;45.714;11.362;2022-12-18T08:14:35;7.33;;;4.67;;
18076;SDS011;9165;45.714;11.362;2022-12-18T08:17:02;7.50;;;4.37;;
18076;SDS011;9165;45.714;11.362;2022-12-18T08:19:28;5.13;;;4.33;;
18076;SDS011;9165;45.714;11.362;2022-12-18T08:21:55;6.50;;;3.70;;
18076;SDS011;9165;45.714;11.362;2022-12-18T08:24:22;5.93;;;4.40;;
18076;SDS011;9165;45.714;11.362;2022-12-18T08:26:49;4.70;;;4.20;;
18076;SDS011;9165;45.714;11.362;2022-12-18T08:29:16;6.20;;;4.73;;
18076;SDS011;9165;45.714;11.362;2022-12-18T08:31:43;5.90;;;4.47;;
18076;SDS011;9165;45.714;11.362;2022-12-18T08:34:09;7.10;;;5.20;;
18076;SDS011;9165;45.714;11.362;2022-12-18T08:36:36;8.10;;;6.17;;
18076;SDS011;9165;45.714;11.362;2022-12-18T08:39:03;7.53;;;5.50;;
18076;SDS011;9165;45.714;11.362;2022-12-18T08:41:29;15.47;;;8.13;;
18076;SDS011;9165;45.714;11.362;2022-12-18T08:43:57;12.60;;;7.40;;
18076;SDS011;9165;45.714;11.362;2022-12-18T08:46:42;11.20;;;6.27;;
18076;SDS011;9165;45.714;11.362;2022-12-18T08:49:10;10.33;;;5.87;;
18076;SDS011;9165;45.714;11.362;2022-12-18T08:51:36;6.73;;;5.30;;
18076;SDS011;9165;45.714;11.362;2022-12-18T08:54:03;9.87;;;6.40;;
18076;SDS011;9165;45.714;11.362;2022-12-18T08:56:30;10.20;;;6.43;;
18076;SDS011;9165;45.714;11.362;2022-12-18T08:58:58;8.33;;;5.67;;
18076;SDS011;9165;45.714;11.362;2022-12-18T09:01:25;8.17;;;6.27;;
18076;SDS011;9165;45.714;11.362;2022-12-18T09:03:51;8.50;;;6.07;;
18076;SDS011;9165;45.714;11.362;2022-12-18T09:06:20;8.20;;;5.20;;
18076;SDS011;9165;45.714;11.362;2022-12-18T09:08:47;8.00;;;5.67;;
18076;SDS011;9165;45.714;11.362;2022-12-18T09:11:15;7.37;;;5.50;;
18076;SDS011;9165;45.714;11.362;2022-12-18T09:13:41;9.33;;;5.50;;
18076;SDS011;9165;45.714;11.362;2022-12-18T09:16:09;6.60;;;5.10;;
18076;SDS011;9165;45.714;11.362;2022-12-18T09:18:36;8.57;;;5.33;;
18076;SDS011;9165;45.714;11.362;2022-12-18T09:21:12;8.73;;;5.93;;
18076;SDS011;9165;45.714;11.362;2022-12-18T09:23:39;8.00;;;5.90;;
18076;SDS011;9165;45.714;11.362;2022-12-18T09:26:06;8.53;;;5.33;;
18076;SDS011;9165;45.714;11.362;2022-12-18T09:28:32;8.27;;;6.10;;
18076;SDS011;9165;45.714;11.362;2022-12-18T09:31:02;9.00;;;6.20;;
18076;SDS011;9165;45.714;11.362;2022-12-18T09:33:30;8.33;;;6.20;;
18076;SDS011;9165;45.714;11.362;2022-12-18T09:35:57;11.63;;;6.10;;
18076;SDS011;9165;45.714;11.362;2022-12-18T09:38:24;7.77;;;6.20;;
18076;SDS011;9165;45.714;11.362;2022-12-18T09:40:51;7.73;;;6.37;;
18076;SDS011;9165;45.714;11.362;2022-12-18T09:43:19;8.70;;;5.50;;
18076;SDS011;9165;45.714;11.362;2022-12-18T09:45:47;8.57;;;6.43;;
18076;SDS011;9165;45.714;11.362;2022-12-18T09:48:17;9.67;;;6.07;;
18076;SDS011;9165;45.714;11.362;2022-12-18T09:50:47;7.83;;;6.20;;
18076;SDS011;9165;45.714;11.362;2022-12-18T09:53:15;6.90;;;5.30;;
18076;SDS011;9165;45.714;11.362;2022-12-18T09:55:44;7.70;;;5.70;;
18076;SDS011;9165;45.714;11.362;2022-12-18T09:58:14;7.97;;;5.30;;
18076;SDS011;9165;45.714;11.362;2022-12-18T10:00:43;5.70;;;5.10;;
18076;SDS011;9165;45.714;11.362;2022-12-18T10:03:10;6.37;;;5.30;;
18076;SDS011;9165;45.714;11.362;2022-12-18T10:05:40;9.07;;;5.50;;
18076;SDS011;9165;45.714;11.362;2022-12-18T10:08:10;6.33;;;5.40;;
18076;SDS011;9165;45.714;11.362;2022-12-18T10:10:40;6.07;;;5.17;;
18076;SDS011;9165;45.714;11.362;2022-12-18T10:13:10;7.27;;;5.00;;
18076;SDS011;9165;45.714;11.362;2022-12-18T10:15:40;12.53;;;5.07;;
18076;SDS011;9165;45.714;11.362;2022-12-18T10:18:14;5.60;;;5.00;;
18076;SDS011;9165;45.714;11.362;2022-12-18T10:20:45;7.63;;;5.60;;
18076;SDS011;9165;45.714;11.362;2022-12-18T10:23:15;6.20;;;5.60;;
18076;SDS011;9165;45.714;11.362;2022-12-18T10:25:46;5.90;;;5.30;;
18076;SDS011;9165;45.714;11.362;2022-12-18T10:28:14;5.17;;;4.23;;
18076;SDS011;9165;45.714;11.362;2022-12-18T10:30:41;6.53;;;5.00;;
18076;SDS011;9165;45.714;11.362;2022-12-18T10:33:09;5.53;;;4.70;;
18076;SDS011;9165;45.714;11.362;2022-12-18T10:35:37;4.97;;;4.47;;
18076;SDS011;9165;45.714;11.362;2022-12-18T10:38:07;4.90;;;4.50;;
18076;SDS011;9165;45.714;11.362;2022-12-18T10:40:51;4.80;;;4.30;;
18076;SDS011;9165;45.714;11.362;2022-12-18T10:43:22;7.27;;;4.90;;
18076;SDS011;9165;45.714;11.362;2022-12-18T10:45:59;5.90;;;4.83;;
18076;SDS011;9165;45.714;11.362;2022-12-18T10:48:26;5.23;;;4.73;;
18076;SDS011;9165;45.714;11.362;2022-12-18T10:50:53;8.10;;;5.53;;
18076;SDS011;9165;45.714;11.362;2022-12-18T10:53:21;6.57;;;5.43;;
18076;SDS011;9165;45.714;11.362;2022-12-18T10:55:48;7.60;;;5.50;;
18076;SDS011;9165;45.714;11.362;2022-12-18T10:58:24;8.00;;;6.03;;
18076;SDS011;9165;45.714;11.362;2022-12-18T11:01:02;6.50;;;5.20;;
18076;SDS011;9165;45.714;11.362;2022-12-18T11:03:30;8.53;;;6.13;;
18076;SDS011;9165;45.714;11.362;2022-12-18T11:06:04;6.93;;;5.43;;
18076;SDS011;9165;45.714;11.362;2022-12-18T11:08:31;5.93;;;4.73;;
18076;SDS011;9165;45.714;11.362;2022-12-18T11:10:58;7.43;;;6.27;;
18076;SDS011;9165;45.714;11.362;2022-12-18T11:13:26;8.50;;;6.07;;
18076;SDS011;9165;45.714;11.362;2022-12-18T11:15:54;7.77;;;5.67;;
18076;SDS011;9165;45.714;11.362;2022-12-18T11:18:22;6.77;;;5.93;;
18076;SDS011;9165;45.714;11.362;2022-12-18T11:20:52;10.77;;;5.93;;
18076;SDS011;9165;45.714;11.362;2022-12-18T11:23:19;6.03;;;5.17;;
18076;SDS011;9165;45.714;11.362;2022-12-18T11:25:52;6.97;;;5.67;;
18076;SDS011;9165;45.714;11.362;2022-12-18T11:28:28;7.43;;;5.70;;
18076;SDS011;9165;45.714;11.362;2022-12-18T11:33:41;9.77;;;6.87;;
18076;SDS011;9165;45.714;11.362;2022-12-18T11:36:09;12.83;;;7.03;;
18076;SDS011;9165;45.714;11.362;2022-12-18T11:38:37;8.70;;;6.27;;
18076;SDS011;9165;45.714;11.362;2022-12-18T11:41:05;8.73;;;6.83;;
18076;SDS011;9165;45.714;11.362;2022-12-18T11:43:35;8.47;;;6.47;;
18076;SDS011;9165;45.714;11.362;2022-12-18T11:46:05;11.43;;;7.37;;
18076;SDS011;9165;45.714;11.362;2022-12-18T11:48:33;9.90;;;7.00;;
18076;SDS011;9165;45.714;11.362;2022-12-18T11:51:00;8.50;;;6.90;;
18076;SDS011;9165;45.714;11.362;2022-12-18T11:53:28;7.83;;;6.17;;
18076;SDS011;9165;45.714;11.362;2022-12-18T11:56:04;8.40;;;6.37;;
18076;SDS011;9165;45.714;11.362;2022-12-18T12:01:27;9.17;;;6.50;;
18076;SDS011;9165;45.714;11.362;2022-12-18T12:04:05;10.70;;;6.20;;
18076;SDS011;9165;45.714;11.362;2022-12-18T12:06:39;9.90;;;6.60;;
18076;SDS011;9165;45.714;11.362;2022-12-18T12:09:09;9.53;;;6.93;;
18076;SDS011;9165;45.714;11.362;2022-12-18T12:11:40;9.80;;;6.80;;
18076;SDS011;9165;45.714;11.362;2022-12-18T12:14:13;7.43;;;6.43;;
18076;SDS011;9165;45.714;11.362;2022-12-18T12:16:46;10.10;;;6.57;;
18076;SDS011;9165;45.714;11.362;2022-12-18T12:19:20;7.73;;;6.23;;
18076;SDS011;9165;45.714;11.362;2022-12-18T12:21:49;9.80;;;7.10;;
18076;SDS011;9165;45.714;11.362;2022-12-18T12:24:22;9.00;;;6.43;;
18076;SDS011;9165;45.714;11.362;2022-12-18T12:26:52;8.70;;;6.47;;
18076;SDS011;9165;45.714;11.362;2022-12-18T12:29:26;8.97;;;6.93;;
18076;SDS011;9165;45.714;11.362;2022-12-18T12:32:08;9.07;;;6.40;;
18076;SDS011;9165;45.714;11.362;2022-12-18T12:34:39;10.20;;;7.30;;
18076;SDS011;9165;45.714;11.362;2022-12-18T12:37:15;8.83;;;6.30;;
18076;SDS011;9165;45.714;11.362;2022-12-18T12:39:46;10.97;;;6.90;;
18076;SDS011;9165;45.714;11.362;2022-12-18T12:42:15;9.83;;;6.53;;
18076;SDS011;9165;45.714;11.362;2022-12-18T12:45:14;10.63;;;6.80;;
18076;SDS011;9165;45.714;11.362;2022-12-18T12:47:43;8.80;;;6.40;;
18076;SDS011;9165;45.714;11.362;2022-12-18T12:50:13;7.73;;;5.87;;
18076;SDS011;9165;45.714;11.362;2022-12-18T12:52:42;9.77;;;6.77;;
18076;SDS011;9165;45.714;11.362;2022-12-18T12:55:12;8.33;;;6.10;;
18076;SDS011;9165;45.714;11.362;2022-12-18T12:57:41;9.47;;;6.47;;
18076;SDS011;9165;45.714;11.362;2022-12-18T13:00:10;10.30;;;6.90;;
18076;SDS011;9165;45.714;11.362;2022-12-18T13:02:39;9.80;;;6.93;;
18076;SDS011;9165;45.714;11.362;2022-12-18T13:05:13;9.53;;;6.50;;
18076;SDS011;9165;45.714;11.362;2022-12-18T13:07:45;10.00;;;6.37;;
18076;SDS011;9165;45.714;11.362;2022-12-18T13:10:22;8.40;;;6.90;;
18076;SDS011;9165;45.714;11.362;2022-12-18T13:12:54;8.93;;;6.20;;
18076;SDS011;9165;45.714;11.362;2022-12-18T13:15:23;8.27;;;7.03;;
18076;SDS011;9165;45.714;11.362;2022-12-18T13:18:02;11.53;;;7.60;;
18076;SDS011;9165;45.714;11.362;2022-12-18T13:20:34;12.17;;;7.73;;
18076;SDS011;9165;45.714;11.362;2022-12-18T13:23:01;12.63;;;7.90;;
18076;SDS011;9165;45.714;11.362;2022-12-18T13:25:45;12.43;;;7.70;;
18076;SDS011;9165;45.714;11.362;2022-12-18T13:28:12;8.80;;;7.07;;
18076;SDS011;9165;45.714;11.362;2022-12-18T13:30:43;8.40;;;6.60;;
18076;SDS011;9165;45.714;11.362;2022-12-18T13:36:01;11.77;;;6.70;;
18076;SDS011;9165;45.714;11.362;2022-12-18T13:38:32;8.17;;;6.13;;
18076;SDS011;9165;45.714;11.362;2022-12-18T13:40:59;8.57;;;6.23;;
18076;SDS011;9165;45.714;11.362;2022-12-18T13:43:30;8.17;;;6.63;;
18076;SDS011;9165;45.714;11.362;2022-12-18T13:48:41;10.43;;;7.47;;
18076;SDS011;9165;45.714;11.362;2022-12-18T13:51:17;10.93;;;7.37;;
18076;SDS011;9165;45.714;11.362;2022-12-18T13:53:44;9.07;;;7.07;;
18076;SDS011;9165;45.714;11.362;2022-12-18T13:56:15;9.83;;;7.33;;
18076;SDS011;9165;45.714;11.362;2022-12-18T13:58:42;9.60;;;6.97;;
18076;SDS011;9165;45.714;11.362;2022-12-18T14:01:15;10.17;;;7.57;;
18076;SDS011;9165;45.714;11.362;2022-12-18T14:03:47;10.77;;;7.30;;
18076;SDS011;9165;45.714;11.362;2022-12-18T14:06:14;9.63;;;6.17;;
18076;SDS011;9165;45.714;11.362;2022-12-18T14:08:42;12.90;;;6.90;;
18076;SDS011;9165;45.714;11.362;2022-12-18T14:11:17;9.77;;;6.93;;
18076;SDS011;9165;45.714;11.362;2022-12-18T14:13:44;9.53;;;6.67;;
18076;SDS011;9165;45.714;11.362;2022-12-18T14:16:13;10.67;;;7.87;;
18076;SDS011;9165;45.714;11.362;2022-12-18T14:18:42;11.07;;;7.90;;
18076;SDS011;9165;45.714;11.362;2022-12-18T14:21:16;9.60;;;6.87;;
18076;SDS011;9165;45.714;11.362;2022-12-18T14:23:45;10.63;;;7.20;;
18076;SDS011;9165;45.714;11.362;2022-12-18T14:26:22;11.77;;;7.47;;
18076;SDS011;9165;45.714;11.362;2022-12-18T14:28:50;12.07;;;7.73;;
18076;SDS011;9165;45.714;11.362;2022-12-18T14:31:19;13.30;;;8.77;;
18076;SDS011;9165;45.714;11.362;2022-12-18T14:33:45;19.70;;;10.43;;
18076;SDS011;9165;45.714;11.362;2022-12-18T14:36:14;14.83;;;9.23;;
18076;SDS011;9165;45.714;11.362;2022-12-18T14:38:42;13.00;;;7.33;;
18076;SDS011;9165;45.714;11.362;2022-12-18T14:41:11;13.80;;;8.50;;
18076;SDS011;9165;45.714;11.362;2022-12-18T14:43:39;13.33;;;9.17;;
18076;SDS011;9165;45.714;11.362;2022-12-18T14:46:06;14.07;;;8.57;;
18076;SDS011;9165;45.714;11.362;2022-12-18T14:48:51;15.40;;;9.03;;
18076;SDS011;9165;45.714;11.362;2022-12-18T14:51:19;14.03;;;10.30;;
18076;SDS011;9165;45.714;11.362;2022-12-18T14:53:46;12.67;;;9.67;;
18076;SDS011;9165;45.714;11.362;2022-12-18T14:56:16;19.33;;;12.30;;
18076;SDS011;9165;45.714;11.362;2022-12-18T14:58:46;17.70;;;11.40;;
18076;SDS011;9165;45.714;11.362;2022-12-18T15:01:23;19.90;;;11.87;;
18076;SDS011;9165;45.714;11.362;2022-12-18T15:03:51;18.63;;;11.73;;
18076;SDS011;9165;45.714;11.362;2022-12-18T15:06:23;21.00;;;12.63;;
18076;SDS011;9165;45.714;11.362;2022-12-18T15:08:51;23.10;;;14.00;;